Time;durP1;ratioP1;P1;durP2;ratioP2;P2;SDS_P1;SDS_P2;PMS_P1;PMS_P2;Temp;Humidity;BMP_temperature;BMP_pressure;BME280_temperature;BME280_humidity;BME280_pressure;Samples;Min_cycle;Max_cycle;Signal;HPM_P1;HPM_P2
2023/09/16 00:02:03;;;;;;;3.57;3.03;;;13.10;99.90;;;;;;5065237;28;20429;-81
2023/09/16 00:04:31;;;;;;;4.23;3.00;;;13.10;99.90;;;;;;5081532;28;20232;-79
2023/09/16 00:06:59;;;;;;;4.47;3.30;;;13.00;99.90;;;;;;5083483;28;20236;-80
2023/09/16 00:09:25;;;;;;;4.47;3.93;;;13.00;99.90;;;;;;5062769;28;20321;-80
2023/09/16 00:11:52;;;;;;;4.83;3.70;;;13.00;99.90;;;;;;5079709;28;20226;-80
2023/09/16 00:14:21;;;;;;;4.60;3.63;;;13.00;99.90;;;;;;5078045;28;20736;-80
2023/09/16 00:16:49;;;;;;;4.43;3.37;;;12.90;99.90;;;;;;5084546;28;20288;-80
2023/09/16 00:19:16;;;;;;;5.10;3.83;;;12.90;99.90;;;;;;5061519;28;20234;-80
2023/09/16 00:21:45;;;;;;;4.87;3.83;;;12.90;99.90;;;;;;5086517;28;20978;-80
2023/09/16 00:24:12;;;;;;;4.27;3.40;;;12.90;99.90;;;;;;5065140;28;20864;-80
2023/09/16 00:26:40;;;;;;;5.27;3.77;;;12.90;99.90;;;;;;5079268;28;20224;-81
2023/09/16 00:29:07;;;;;;;5.43;3.80;;;12.90;99.90;;;;;;5077867;28;20639;-82
2023/09/16 00:31:36;;;;;;;8.27;4.37;;;12.80;99.90;;;;;;5084565;28;20305;-81
2023/09/16 00:34:03;;;;;;;4.27;3.67;;;12.80;99.90;;;;;;5066198;28;20222;-81
2023/09/16 00:36:30;;;;;;;9.77;3.90;;;12.80;99.90;;;;;;5066725;28;20687;-81
2023/09/16 00:38:58;;;;;;;4.30;3.80;;;12.80;99.90;;;;;;5084834;28;20343;-81
2023/09/16 00:41:25;;;;;;;5.20;3.50;;;12.80;99.90;;;;;;5082407;28;20951;-81
2023/09/16 00:43:52;;;;;;;5.30;3.40;;;12.70;99.90;;;;;;5076953;28;20328;-81
2023/09/16 00:46:19;;;;;;;4.30;3.40;;;12.70;99.90;;;;;;5081739;28;20230;-81
2023/09/16 00:48:45;;;;;;;6.27;3.90;;;12.70;99.90;;;;;;5057245;28;20302;-81
2023/09/16 00:51:14;;;;;;;4.93;4.10;;;12.70;99.90;;;;;;5074036;28;20849;-81
2023/09/16 00:53:45;;;;;;;6.13;4.20;;;12.70;99.90;;;;;;5064446;28;20244;-82
2023/09/16 00:56:13;;;;;;;5.80;3.77;;;12.60;99.90;;;;;;5080623;28;20301;-81
2023/09/16 00:58:41;;;;;;;5.20;3.80;;;12.60;99.90;;;;;;5059689;28;20242;-81
2023/09/16 01:01:09;;;;;;;5.47;4.00;;;12.60;99.90;;;;;;5060696;28;20232;-79
2023/09/16 01:03:37;;;;;;;4.90;3.67;;;12.60;99.90;;;;;;5067791;28;20347;-81
2023/09/16 01:06:04;;;;;;;4.93;4.07;;;12.60;99.90;;;;;;5066175;28;20922;-80
2023/09/16 01:08:34;;;;;;;4.00;3.37;;;12.60;99.90;;;;;;5066809;28;20226;-80
2023/09/16 01:11:02;;;;;;;5.13;4.27;;;12.60;99.90;;;;;;5063181;28;20217;-80
2023/09/16 01:13:30;;;;;;;5.47;4.40;;;12.60;99.90;;;;;;5062435;28;20227;-80
2023/09/16 01:16:05;;;;;;;5.50;4.07;;;12.60;99.90;;;;;;5061309;28;20248;-80
2023/09/16 01:18:38;;;;;;;6.87;4.40;;;12.60;99.90;;;;;;5082298;28;20229;-81
2023/09/16 01:21:07;;;;;;;3.77;3.37;;;12.60;99.90;;;;;;5057668;28;20289;-80
2023/09/16 01:23:34;;;;;;;4.73;4.07;;;12.60;99.90;;;;;;5059025;28;20309;-80
2023/09/16 01:26:04;;;;;;;4.90;4.40;;;12.60;99.90;;;;;;5063524;28;20314;-80
2023/09/16 01:28:32;;;;;;;5.97;4.50;;;12.60;99.90;;;;;;5078779;28;20221;-80
2023/09/16 01:30:59;;;;;;;5.33;4.37;;;12.60;99.90;;;;;;5066547;28;20268;-80
2023/09/16 01:33:36;;;;;;;5.30;4.33;;;12.60;99.90;;;;;;5082632;28;20234;-80
2023/09/16 01:36:06;;;;;;;4.73;3.90;;;12.60;99.90;;;;;;5067088;28;20231;-80
2023/09/16 01:38:37;;;;;;;5.37;4.30;;;12.60;99.90;;;;;;5082602;28;20223;-80
2023/09/16 01:41:07;;;;;;;5.47;4.00;;;12.50;99.90;;;;;;5063162;28;20228;-80
2023/09/16 01:43:34;;;;;;;5.10;4.00;;;12.50;99.90;;;;;;5069639;28;20230;-80
2023/09/16 01:46:01;;;;;;;4.50;4.10;;;12.50;99.90;;;;;;5071045;28;20219;-80
2023/09/16 01:48:29;;;;;;;6.53;4.67;;;12.50;99.90;;;;;;5065802;28;20216;-80
2023/09/16 01:50:56;;;;;;;5.97;4.60;;;12.40;99.90;;;;;;5065266;28;20232;-80
2023/09/16 01:53:23;;;;;;;5.57;4.43;;;12.50;99.90;;;;;;5065478;28;20267;-80
2023/09/16 01:55:50;;;;;;;6.43;4.93;;;12.40;99.90;;;;;;5063006;28;20215;-79
2023/09/16 01:58:19;;;;;;;5.37;4.57;;;12.40;99.90;;;;;;5063287;28;20251;-80
2023/09/16 02:00:46;;;;;;;5.57;4.77;;;12.40;99.90;;;;;;5067321;28;20266;-80
2023/09/16 02:03:12;;;;;;;6.20;4.73;;;12.40;99.90;;;;;;5064868;28;20358;-80
2023/09/16 02:05:39;;;;;;;5.77;4.97;;;12.40;99.90;;;;;;5067076;28;20240;-80
2023/09/16 02:08:06;;;;;;;6.37;4.70;;;12.40;99.90;;;;;;5085010;28;20237;-79
2023/09/16 02:10:33;;;;;;;6.30;4.17;;;12.40;99.90;;;;;;5083131;28;20245;-79
2023/09/16 02:13:00;;;;;;;8.03;4.80;;;12.30;99.90;;;;;;5063967;28;20217;-79
2023/09/16 02:15:29;;;;;;;5.73;4.63;;;12.40;99.90;;;;;;5069991;28;20285;-79
2023/09/16 02:17:56;;;;;;;6.23;4.50;;;12.30;99.90;;;;;;5083163;28;20250;-80
2023/09/16 02:20:23;;;;;;;5.00;4.10;;;12.30;99.90;;;;;;5082263;28;20264;-80
2023/09/16 02:22:50;;;;;;;4.60;4.20;;;12.30;99.90;;;;;;5089961;28;20306;-80
2023/09/16 02:25:17;;;;;;;5.60;4.77;;;12.30;99.90;;;;;;5067044;28;21046;-80
2023/09/16 02:27:43;;;;;;;4.90;4.40;;;12.20;99.90;;;;;;5065894;28;20361;-81
2023/09/16 02:30:11;;;;;;;5.93;4.40;;;12.20;99.90;;;;;;5066445;28;20254;-80
2023/09/16 02:32:40;;;;;;;6.20;4.80;;;12.20;99.90;;;;;;5062273;28;20226;-80
2023/09/16 02:35:07;;;;;;;6.03;4.93;;;12.20;99.90;;;;;;5066984;28;20766;-81
2023/09/16 02:37:34;;;;;;;5.67;4.70;;;12.20;99.90;;;;;;5064447;28;20616;-81
2023/09/16 02:40:02;;;;;;;8.73;5.03;;;12.20;99.90;;;;;;5057665;28;20251;-80
2023/09/16 02:42:29;;;;;;;5.40;4.90;;;12.20;99.90;;;;;;5062130;28;20242;-81
2023/09/16 02:44:56;;;;;;;7.07;5.10;;;12.20;99.90;;;;;;5066324;28;20250;-81
2023/09/16 02:47:23;;;;;;;5.10;4.60;;;12.10;99.90;;;;;;5065327;28;20228;-81
2023/09/16 02:49:51;;;;;;;5.87;4.77;;;12.20;99.90;;;;;;5086161;28;20308;-82
2023/09/16 02:52:20;;;;;;;5.90;4.97;;;12.10;99.90;;;;;;5090343;28;20257;-81
2023/09/16 02:54:47;;;;;;;5.73;4.80;;;12.10;99.90;;;;;;5067240;28;20290;-81
2023/09/16 02:57:13;;;;;;;5.97;5.37;;;12.10;99.90;;;;;;5072753;28;20216;-81
2023/09/16 02:59:41;;;;;;;7.23;5.53;;;12.10;99.90;;;;;;5069094;28;20230;-82
2023/09/16 03:02:08;;;;;;;6.40;4.97;;;12.10;99.90;;;;;;5065359;28;20222;-80
2023/09/16 03:04:36;;;;;;;7.47;5.50;;;12.10;99.90;;;;;;5066427;28;20251;-81
2023/09/16 03:07:06;;;;;;;7.47;5.60;;;12.00;99.90;;;;;;5065462;28;20226;-81
2023/09/16 03:09:33;;;;;;;7.30;5.27;;;12.00;99.90;;;;;;5068347;28;20259;-81
2023/09/16 03:12:01;;;;;;;8.40;5.70;;;12.00;99.90;;;;;;5068158;28;20226;-81
2023/09/16 03:14:28;;;;;;;6.73;5.10;;;12.00;99.90;;;;;;5091756;28;20237;-81
2023/09/16 03:16:56;;;;;;;7.83;4.80;;;12.00;99.90;;;;;;5070292;28;20219;-80
2023/09/16 03:19:24;;;;;;;6.30;5.00;;;12.00;99.90;;;;;;5063981;28;20238;-81
2023/09/16 03:21:51;;;;;;;5.33;4.83;;;12.00;99.90;;;;;;5068955;28;20222;-80
2023/09/16 03:24:20;;;;;;;7.50;5.30;;;11.90;99.90;;;;;;5068540;28;20230;-80
2023/09/16 03:26:47;;;;;;;7.13;5.23;;;11.90;99.90;;;;;;5072952;28;20217;-80
2023/09/16 03:29:15;;;;;;;6.80;5.17;;;11.90;99.90;;;;;;5075943;28;20289;-80
2023/09/16 03:31:42;;;;;;;7.53;5.00;;;11.90;99.90;;;;;;5076522;28;20359;-80
2023/09/16 03:34:16;;;;;;;6.90;5.10;;;11.90;99.90;;;;;;5085997;28;20222;-80
2023/09/16 03:36:43;;;;;;;6.67;5.10;;;11.90;99.90;;;;;;5071095;28;20227;-80
2023/09/16 03:39:10;;;;;;;5.67;5.10;;;11.90;99.90;;;;;;5090201;28;20257;-81
2023/09/16 03:41:39;;;;;;;7.63;5.37;;;11.80;99.90;;;;;;5069911;28;20302;-80
2023/09/16 03:44:07;;;;;;;6.40;5.17;;;11.80;99.90;;;;;;5071087;28;20268;-80
2023/09/16 03:46:34;;;;;;;8.07;6.00;;;11.90;99.90;;;;;;5082499;28;20223;-80
2023/09/16 03:49:04;;;;;;;6.13;5.53;;;11.80;99.90;;;;;;5068942;28;20236;-80
2023/09/16 03:51:31;;;;;;;6.27;5.30;;;11.80;99.90;;;;;;5070248;28;20229;-82
2023/09/16 03:53:57;;;;;;;5.97;5.30;;;11.80;99.90;;;;;;5083751;28;20801;-81
2023/09/16 03:56:24;;;;;;;7.70;5.27;;;11.80;99.90;;;;;;5066756;28;20283;-81
2023/09/16 03:58:53;;;;;;;6.50;5.63;;;11.80;99.90;;;;;;5087732;28;20238;-81
2023/09/16 04:01:24;;;;;;;5.93;5.33;;;11.80;99.90;;;;;;5065163;28;20252;-81
2023/09/16 04:03:54;;;;;;;9.07;5.50;;;11.70;99.90;;;;;;5065790;28;20219;-81
2023/09/16 04:06:21;;;;;;;6.97;5.77;;;11.70;99.90;;;;;;5090827;28;20229;-80
2023/09/16 04:08:48;;;;;;;7.37;5.17;;;11.70;99.90;;;;;;5081879;28;20227;-80
2023/09/16 04:11:16;;;;;;;7.30;5.53;;;11.70;99.90;;;;;;5070209;28;20224;-80
2023/09/16 04:13:43;;;;;;;7.40;5.77;;;11.70;99.90;;;;;;5075219;28;20230;-80
2023/09/16 04:16:11;;;;;;;6.70;5.67;;;11.60;99.90;;;;;;5069818;28;20663;-80
2023/09/16 04:18:38;;;;;;;8.40;6.33;;;11.70;99.90;;;;;;5087341;28;20638;-80
2023/09/16 04:21:06;;;;;;;6.47;5.30;;;11.60;99.90;;;;;;5086221;28;20228;-80
2023/09/16 04:23:34;;;;;;;7.40;5.27;;;11.60;99.90;;;;;;5064411;28;20246;-79
2023/09/16 04:26:06;;;;;;;9.33;5.33;;;11.60;99.90;;;;;;5059719;28;20731;-83
2023/09/16 04:28:33;;;;;;;5.80;5.17;;;11.60;99.90;;;;;;5055625;28;20235;-80
2023/09/16 04:31:00;;;;;;;6.73;5.53;;;11.60;99.90;;;;;;5085341;28;20211;-81
2023/09/16 04:33:33;;;;;;;8.87;6.87;;;11.60;99.90;;;;;;5067146;28;20317;-80
2023/09/16 04:36:00;;;;;;;7.03;6.07;;;11.50;99.90;;;;;;5070824;28;20295;-81
2023/09/16 04:38:28;;;;;;;8.53;6.83;;;11.50;99.90;;;;;;5068444;28;20920;-80
2023/09/16 04:40:57;;;;;;;6.57;5.97;;;11.50;99.90;;;;;;5066476;28;20220;-81
2023/09/16 04:43:25;;;;;;;6.97;5.97;;;11.50;99.90;;;;;;5063860;28;20412;-80
2023/09/16 04:45:54;;;;;;;7.57;6.00;;;11.50;99.90;;;;;;5066699;28;20214;-82
2023/09/16 04:48:33;;;;;;;8.80;5.80;;;11.50;99.90;;;;;;5052553;28;20924;-82
2023/09/16 04:51:00;;;;;;;7.70;6.40;;;11.50;99.90;;;;;;5077655;28;20492;-80
2023/09/16 04:53:27;;;;;;;7.50;5.70;;;11.50;99.90;;;;;;5081076;28;20240;-80
2023/09/16 04:56:00;;;;;;;7.57;5.87;;;11.50;99.90;;;;;;5062030;28;20318;-80
2023/09/16 04:58:27;;;;;;;8.30;6.00;;;11.50;99.90;;;;;;5088553;28;20272;-81
2023/09/16 05:00:54;;;;;;;7.93;6.27;;;11.50;99.90;;;;;;5068348;28;20221;-79
2023/09/16 05:03:21;;;;;;;7.37;6.07;;;11.50;99.90;;;;;;5070439;28;20317;-81
2023/09/16 05:05:53;;;;;;;7.13;5.90;;;11.50;99.90;;;;;;5068380;28;20314;-80
2023/09/16 05:08:22;;;;;;;6.87;5.63;;;11.50;99.90;;;;;;5072881;28;20232;-80
2023/09/16 05:10:53;;;;;;;7.17;5.73;;;11.50;99.90;;;;;;5068998;28;20646;-80
2023/09/16 05:13:20;;;;;;;7.63;5.80;;;11.50;99.90;;;;;;5067704;28;20315;-82
2023/09/16 05:15:48;;;;;;;7.10;5.77;;;11.60;99.90;;;;;;5065221;28;20223;-81
2023/09/16 05:18:15;;;;;;;7.80;6.03;;;11.60;99.90;;;;;;5069337;28;20226;-79
2023/09/16 05:20:41;;;;;;;8.30;5.67;;;11.60;99.90;;;;;;5071081;28;20277;-80
2023/09/16 05:23:11;;;;;;;7.73;5.40;;;11.60;99.90;;;;;;5073868;28;20213;-81
2023/09/16 05:25:45;;;;;;;7.17;5.43;;;11.60;99.90;;;;;;5066464;28;20210;-80
2023/09/16 05:28:12;;;;;;;6.13;5.53;;;11.60;99.90;;;;;;5083799;28;20235;-80
2023/09/16 05:30:39;;;;;;;7.07;5.60;;;11.60;99.90;;;;;;5089558;28;20265;-80
2023/09/16 05:33:06;;;;;;;8.17;5.93;;;11.60;99.90;;;;;;5087118;28;20220;-80
2023/09/16 05:35:33;;;;;;;7.77;5.60;;;11.70;99.90;;;;;;5070890;28;20478;-81
2023/09/16 05:38:01;;;;;;;7.33;6.13;;;11.70;99.90;;;;;;5069004;28;20656;-80
2023/09/16 05:40:29;;;;;;;8.83;5.63;;;11.70;99.90;;;;;;5068534;28;20232;-80
2023/09/16 05:42:56;;;;;;;7.50;5.70;;;11.80;99.90;;;;;;5069956;28;20223;-79
2023/09/16 05:45:23;;;;;;;6.40;5.20;;;11.80;99.90;;;;;;5062117;28;20238;-80
2023/09/16 05:47:51;;;;;;;7.47;5.43;;;11.80;99.90;;;;;;5067777;28;20305;-80
2023/09/16 05:50:18;;;;;;;6.77;5.23;;;11.80;99.90;;;;;;5084170;28;20236;-80
2023/09/16 05:52:45;;;;;;;6.03;5.47;;;11.90;99.90;;;;;;5066527;28;20262;-81
2023/09/16 05:55:12;;;;;;;7.70;5.70;;;11.90;99.90;;;;;;5070198;28;20251;-81
2023/09/16 05:57:40;;;;;;;5.87;5.23;;;12.00;99.90;;;;;;5062356;28;20837;-80
2023/09/16 06:00:09;;;;;;;6.17;5.27;;;12.00;99.90;;;;;;5070945;28;20219;-80
2023/09/16 06:02:40;;;;;;;6.87;5.50;;;12.10;99.90;;;;;;5068594;28;20821;-80
2023/09/16 06:05:08;;;;;;;8.80;5.57;;;12.10;99.90;;;;;;5065627;28;20224;-80
2023/09/16 06:07:36;;;;;;;9.20;5.47;;;12.20;99.90;;;;;;5068904;28;20333;-80
2023/09/16 06:10:03;;;;;;;6.33;5.03;;;12.20;99.90;;;;;;5070324;28;20222;-81
2023/09/16 06:12:30;;;;;;;9.97;6.17;;;12.30;99.90;;;;;;5088417;28;20688;-81
2023/09/16 06:14:58;;;;;;;7.10;4.93;;;12.30;99.90;;;;;;5059746;28;20311;-83
2023/09/16 06:17:25;;;;;;;5.73;4.80;;;12.40;99.90;;;;;;5060560;28;20597;-83
2023/09/16 06:19:54;;;;;;;6.10;5.10;;;12.40;99.90;;;;;;5063127;28;20232;-83
2023/09/16 06:22:21;;;;;;;7.43;5.57;;;12.50;99.90;;;;;;5063979;28;20312;-82
2023/09/16 06:24:48;;;;;;;7.97;5.33;;;12.60;99.90;;;;;;5084606;28;20345;-82
2023/09/16 06:27:14;;;;;;;5.97;4.77;;;12.60;99.90;;;;;;5069131;28;20255;-83
2023/09/16 06:29:43;;;;;;;6.50;5.00;;;12.70;99.90;;;;;;5069043;28;20232;-82
2023/09/16 06:32:11;;;;;;;6.10;5.03;;;12.80;99.90;;;;;;5067027;28;20739;-83
2023/09/16 06:34:38;;;;;;;7.87;5.10;;;12.90;99.90;;;;;;5063317;28;20235;-83
2023/09/16 06:37:06;;;;;;;6.90;5.17;;;12.90;99.90;;;;;;5066122;28;20704;-83
2023/09/16 06:39:33;;;;;;;6.53;5.20;;;13.00;99.90;;;;;;5066623;28;20655;-83
2023/09/16 06:42:00;;;;;;;6.03;4.97;;;13.00;99.90;;;;;;5071325;28;20601;-83
2023/09/16 06:44:33;;;;;;;7.10;5.17;;;13.10;99.90;;;;;;5064782;28;20702;-82
2023/09/16 06:47:00;;;;;;;5.87;4.97;;;13.20;99.90;;;;;;5074066;28;20235;-82
2023/09/16 06:49:28;;;;;;;5.57;4.90;;;13.20;99.90;;;;;;5068596;28;20662;-81
2023/09/16 06:51:55;;;;;;;5.30;4.43;;;13.30;99.90;;;;;;5068134;28;20307;-82
2023/09/16 06:54:21;;;;;;;5.83;4.63;;;13.30;99.90;;;;;;5090147;28;20251;-80
2023/09/16 06:56:48;;;;;;;5.67;4.60;;;13.40;99.90;;;;;;5086822;28;20335;-81
2023/09/16 06:59:15;;;;;;;6.97;4.77;;;13.50;99.90;;;;;;5068809;28;20238;-83
2023/09/16 07:01:41;;;;;;;7.63;4.80;;;13.50;99.90;;;;;;5070255;28;20223;-82
2023/09/16 07:04:08;;;;;;;7.03;4.80;;;13.60;99.90;;;;;;5069732;28;22233;-81
2023/09/16 07:06:36;;;;;;;7.40;4.73;;;13.60;99.90;;;;;;5092148;28;20235;-83
2023/09/16 07:09:03;;;;;;;5.93;4.70;;;13.70;99.90;;;;;;5061318;28;20241;-80
2023/09/16 07:11:30;;;;;;;5.40;4.80;;;13.70;99.90;;;;;;5091310;28;20308;-82
2023/09/16 07:13:56;;;;;;;6.57;4.77;;;13.80;99.90;;;;;;5068376;28;20222;-84
2023/09/16 07:16:36;;;;;;;6.57;4.77;;;13.80;99.90;;;;;;5070621;28;20217;-84
2023/09/16 07:19:03;;;;;;;7.80;4.77;;;13.90;99.90;;;;;;5064137;28;20312;-82
2023/09/16 07:21:31;;;;;;;5.13;4.63;;;14.00;99.90;;;;;;5084551;28;20224;-82
2023/09/16 07:24:00;;;;;;;7.80;5.13;;;14.00;99.90;;;;;;5087270;28;20766;-82
2023/09/16 07:26:27;;;;;;;6.30;4.77;;;14.10;99.90;;;;;;5087086;28;20744;-82
2023/09/16 07:28:54;;;;;;;5.90;4.40;;;14.10;99.90;;;;;;5070487;28;20224;-82
2023/09/16 07:31:21;;;;;;;5.73;4.73;;;14.20;99.90;;;;;;5071726;28;20353;-81
2023/09/16 07:33:48;;;;;;;6.80;4.70;;;14.30;99.90;;;;;;5068836;28;20313;-80
2023/09/16 07:36:15;;;;;;;8.93;5.17;;;14.40;99.90;;;;;;5070332;28;20253;-81
2023/09/16 07:38:42;;;;;;;7.77;4.90;;;14.50;99.90;;;;;;5060932;28;20222;-79
2023/09/16 07:41:10;;;;;;;6.00;5.17;;;14.50;99.90;;;;;;5078184;28;20838;-78
2023/09/16 07:43:37;;;;;;;7.80;4.47;;;14.60;99.90;;;;;;5080946;28;20219;-79
2023/09/16 07:46:04;;;;;;;6.73;4.73;;;14.70;99.90;;;;;;5060241;28;20609;-79
2023/09/16 07:48:31;;;;;;;7.13;4.60;;;14.70;99.90;;;;;;5080532;28;20312;-79
2023/09/16 07:50:58;;;;;;;7.07;5.20;;;14.90;99.90;;;;;;5058189;28;20226;-79
2023/09/16 07:53:25;;;;;;;4.87;4.37;;;15.10;99.90;;;;;;5077455;28;20257;-78
2023/09/16 07:55:51;;;;;;;5.83;4.60;;;15.30;99.90;;;;;;5080928;28;20220;-79
2023/09/16 07:58:19;;;;;;;5.00;4.43;;;15.50;99.90;;;;;;5074734;28;20223;-79
2023/09/16 08:00:46;;;;;;;5.40;4.40;;;15.70;99.90;;;;;;5053243;28;20648;-79
2023/09/16 08:03:13;;;;;;;4.97;3.80;;;16.00;99.90;;;;;;5075659;28;20905;-79
2023/09/16 08:05:39;;;;;;;5.77;4.27;;;16.10;99.90;;;;;;5057717;28;20384;-79
2023/09/16 08:08:06;;;;;;;5.07;4.07;;;16.30;99.90;;;;;;5057659;28;20219;-79
2023/09/16 08:10:33;;;;;;;5.30;4.43;;;16.50;99.90;;;;;;5080384;28;20227;-78
2023/09/16 08:12:59;;;;;;;5.33;4.30;;;16.60;99.90;;;;;;5075126;28;20220;-79
2023/09/16 08:15:27;;;;;;;7.93;4.43;;;16.70;99.90;;;;;;5070329;28;20234;-78
2023/09/16 08:17:55;;;;;;;5.80;4.05;;;16.80;99.90;;;;;;5083351;28;20287;-78
2023/09/16 08:20:23;;;;;;;5.28;4.03;;;16.90;99.90;;;;;;5077351;28;20234;-79
2023/09/16 08:22:49;;;;;;;5.30;3.80;;;17.00;99.90;;;;;;5060828;28;20952;-79
2023/09/16 08:25:16;;;;;;;5.72;4.05;;;17.10;99.90;;;;;;5087050;28;20218;-78
2023/09/16 08:27:43;;;;;;;5.85;4.20;;;17.30;99.90;;;;;;5084714;28;20942;-78
2023/09/16 08:30:10;;;;;;;6.43;3.90;;;17.50;99.90;;;;;;5061324;28;20323;-78
2023/09/16 08:32:38;;;;;;;5.15;3.88;;;17.70;99.90;;;;;;5076533;28;20645;-78
2023/09/16 08:35:06;;;;;;;5.32;3.75;;;18.10;99.90;;;;;;5076710;28;20215;-78
2023/09/16 08:37:34;;;;;;;6.25;4.18;;;18.50;99.90;;;;;;5080816;28;20229;-79
2023/09/16 08:40:01;;;;;;;7.40;3.90;;;19.00;99.90;;;;;;5063630;28;20632;-78
2023/09/16 08:42:35;;;;;;;6.30;4.00;;;19.50;99.90;;;;;;5084714;28;20223;-79
2023/09/16 08:45:04;;;;;;;3.85;3.22;;;19.90;99.90;;;;;;5081874;28;20228;-79
2023/09/16 08:47:34;;;;;;;4.15;3.63;;;20.20;99.90;;;;;;5081413;28;20225;-79
2023/09/16 08:50:06;;;;;;;4.78;3.65;;;20.50;99.90;;;;;;5072804;28;20215;-79
2023/09/16 08:52:45;;;;;;;5.70;3.22;;;20.70;99.90;;;;;;5059788;28;20306;-79
2023/09/16 08:55:13;;;;;;;3.95;3.47;;;20.80;99.90;;;;;;5081117;28;20297;-78
2023/09/16 08:57:44;;;;;;;3.88;3.25;;;20.90;99.90;;;;;;5074069;28;20223;-79
2023/09/16 09:00:12;;;;;;;5.15;3.45;;;21.00;99.90;;;;;;5078934;28;20225;-78
2023/09/16 09:02:40;;;;;;;4.68;3.20;;;21.00;99.90;;;;;;5082711;28;20228;-79
2023/09/16 09:05:09;;;;;;;4.22;3.80;;;21.00;99.90;;;;;;5078518;28;20302;-78
2023/09/16 09:07:37;;;;;;;5.28;3.63;;;21.10;99.90;;;;;;5081259;28;20221;-79
2023/09/16 09:10:05;;;;;;;4.03;3.47;;;21.20;99.90;;;;;;5054022;28;20770;-79
2023/09/16 09:12:35;;;;;;;4.68;3.38;;;21.40;99.90;;;;;;5062170;28;20310;-78
2023/09/16 09:15:04;;;;;;;5.03;3.60;;;21.70;99.90;;;;;;5071377;28;20223;-78
2023/09/16 09:17:37;;;;;;;5.50;3.65;;;22.10;99.90;;;;;;5077865;28;20603;-79
2023/09/16 09:20:06;;;;;;;3.63;3.03;;;22.50;99.90;;;;;;5076818;28;20226;-78
2023/09/16 09:22:37;;;;;;;3.30;3.00;;;22.90;99.90;;;;;;5059988;28;20872;-79
2023/09/16 09:25:04;;;;;;;5.10;3.40;;;23.40;99.90;;;;;;5075002;28;20236;-79
2023/09/16 09:27:31;;;;;;;3.60;3.15;;;24.00;99.90;;;;;;5054618;28;20230;-79
2023/09/16 09:29:57;;;;;;;5.82;2.97;;;24.70;99.90;;;;;;5074116;28;20227;-79
2023/09/16 09:32:29;;;;;;;3.60;3.15;;;25.30;99.90;;;;;;5061843;28;20234;-79
2023/09/16 09:34:56;;;;;;;3.60;2.90;;;25.90;98.90;;;;;;5077760;28;20215;-79
2023/09/16 09:37:22;;;;;;;5.53;3.03;;;26.40;98.90;;;;;;5081251;28;20849;-79
2023/09/16 09:40:05;;;;;;;5.55;2.50;;;26.80;98.80;;;;;;5079067;28;20230;-78
2023/09/16 09:42:32;;;;;;;5.30;2.88;;;27.30;96.90;;;;;;5075125;28;20866;-78
2023/09/16 09:45:02;;;;;;;4.82;3.05;;;27.60;97.80;;;;;;5076787;28;20870;-79
2023/09/16 09:47:29;;;;;;;5.38;3.20;;;27.90;95.80;;;;;;5074853;28;20227;-78
2023/09/16 09:49:56;;;;;;;6.25;3.03;;;28.20;96.40;;;;;;5077661;28;20226;-78
2023/09/16 09:52:23;;;;;;;3.75;3.15;;;28.50;96.00;;;;;;5084314;28;20218;-78
2023/09/16 09:54:52;;;;;;;3.10;2.78;;;28.80;94.90;;;;;;5066449;28;20226;-78
2023/09/16 09:57:19;;;;;;;11.45;3.20;;;29.10;94.10;;;;;;5062211;28;20222;-77
2023/09/16 09:59:46;;;;;;;5.20;2.92;;;29.20;92.40;;;;;;5085394;28;20783;-79
2023/09/16 10:02:13;;;;;;;2.95;2.47;;;29.40;91.70;;;;;;5081323;28;20232;-79
2023/09/16 10:04:40;;;;;;;3.22;2.92;;;29.50;91.40;;;;;;5062536;28;20313;-79
2023/09/16 10:07:07;;;;;;;4.03;2.92;;;29.50;91.10;;;;;;5071183;28;20221;-79
2023/09/16 10:09:34;;;;;;;3.83;2.55;;;29.50;89.30;;;;;;5067637;28;20269;-79
2023/09/16 10:12:03;;;;;;;5.10;2.85;;;29.50;90.50;;;;;;5090666;28;20229;-79
2023/09/16 10:14:32;;;;;;;3.33;2.60;;;29.50;87.80;;;;;;5083068;28;20223;-79
2023/09/16 10:16:59;;;;;;;3.10;2.83;;;29.40;87.20;;;;;;5083723;28;20626;-79
2023/09/16 10:19:27;;;;;;;5.90;2.55;;;29.40;88.80;;;;;;5069212;28;20348;-79
2023/09/16 10:21:54;;;;;;;5.07;3.10;;;29.30;87.00;;;;;;5090640;28;20228;-80
2023/09/16 10:24:21;;;;;;;3.95;2.65;;;29.30;87.70;;;;;;5084784;28;20222;-79
2023/09/16 10:26:49;;;;;;;6.55;2.80;;;29.30;85.40;;;;;;5063125;28;20227;-79
2023/09/16 10:29:18;;;;;;;5.32;2.60;;;29.30;86.40;;;;;;5058818;28;20347;-79
2023/09/16 10:31:46;;;;;;;4.18;2.60;;;29.20;84.90;;;;;;5085722;28;20221;-79
2023/09/16 10:34:12;;;;;;;4.93;2.80;;;29.20;84.80;;;;;;5080235;28;20309;-79
2023/09/16 10:36:39;;;;;;;2.60;2.40;;;29.00;85.00;;;;;;5082691;28;20907;-79
2023/09/16 10:39:07;;;;;;;7.13;2.97;;;29.00;85.20;;;;;;5064453;28;20222;-79
2023/09/16 10:41:35;;;;;;;4.65;2.70;;;28.90;84.60;;;;;;5064419;28;20214;-79
2023/09/16 10:44:03;;;;;;;3.10;2.80;;;28.90;83.90;;;;;;5084054;28;20309;-79
2023/09/16 10:46:34;;;;;;;3.78;2.38;;;28.70;82.60;;;;;;5064966;28;20228;-79
2023/09/16 10:49:00;;;;;;;2.92;2.58;;;28.70;83.40;;;;;;5065547;28;20646;-79
2023/09/16 10:51:32;;;;;;;3.42;2.60;;;28.80;85.00;;;;;;5062746;28;20882;-79
2023/09/16 10:54:07;;;;;;;2.60;2.25;;;28.80;82.70;;;;;;5060788;28;20222;-79
2023/09/16 10:56:40;;;;;;;3.35;2.95;;;28.90;83.80;;;;;;5065659;28;20762;-79
2023/09/16 10:59:08;;;;;;;4.00;2.85;;;29.00;82.50;;;;;;5065213;28;20226;-79
2023/09/16 11:01:46;;;;;;;3.53;2.45;;;29.20;84.80;;;;;;5065517;28;20269;-79
2023/09/16 11:04:16;;;;;;;2.78;2.50;;;29.30;76.80;;;;;;5062411;28;20229;-79
2023/09/16 11:06:50;;;;;;;3.22;2.80;;;29.40;79.60;;;;;;5065671;28;20233;-79
2023/09/16 11:09:17;;;;;;;3.95;2.72;;;29.30;78.90;;;;;;5061696;28;20708;-79
2023/09/16 11:11:45;;;;;;;3.08;2.35;;;29.30;77.70;;;;;;5063934;28;20309;-79
2023/09/16 11:14:13;;;;;;;3.17;2.70;;;29.20;75.00;;;;;;5077219;28;20249;-79
2023/09/16 11:16:45;;;;;;;2.67;2.30;;;29.10;76.90;;;;;;5085003;28;20305;-80
2023/09/16 11:19:14;;;;;;;3.47;2.70;;;29.10;77.90;;;;;;5063150;28;20222;-80
2023/09/16 11:21:41;;;;;;;7.13;2.67;;;29.10;77.00;;;;;;5067240;28;20326;-81
2023/09/16 11:24:08;;;;;;;6.88;2.90;;;28.90;77.30;;;;;;5086299;28;20223;-80
2023/09/16 11:26:37;;;;;;;2.80;2.35;;;28.90;79.20;;;;;;5068383;28;20253;-79
2023/09/16 11:29:15;;;;;;;3.95;2.60;;;28.90;78.20;;;;;;5065002;28;20223;-79
2023/09/16 11:31:42;;;;;;;4.32;2.70;;;28.90;78.70;;;;;;5067495;28;20771;-80
2023/09/16 11:34:11;;;;;;;4.00;2.85;;;28.90;79.20;;;;;;5068354;28;20461;-81
2023/09/16 11:36:42;;;;;;;2.60;2.40;;;28.70;77.10;;;;;;5081812;28;20215;-80
2023/09/16 11:39:18;;;;;;;3.33;2.88;;;28.60;76.90;;;;;;5066844;28;20237;-80
2023/09/16 11:41:45;;;;;;;3.15;2.72;;;28.50;77.60;;;;;;5075143;28;20219;-79
2023/09/16 11:44:12;;;;;;;3.35;3.05;;;28.40;79.10;;;;;;5065716;28;20292;-79
2023/09/16 11:46:39;;;;;;;3.55;2.63;;;28.30;78.50;;;;;;5069117;28;20235;-81
2023/09/16 11:49:07;;;;;;;4.07;2.90;;;28.10;78.70;;;;;;5074480;28;20227;-81
2023/09/16 11:51:36;;;;;;;3.92;2.78;;;28.00;78.70;;;;;;5071523;28;20229;-81
2023/09/16 11:54:05;;;;;;;4.38;2.80;;;27.80;77.70;;;;;;5083459;28;20239;-80
2023/09/16 11:56:34;;;;;;;2.65;2.45;;;27.60;77.20;;;;;;5068784;28;20230;-80
2023/09/16 11:59:01;;;;;;;3.40;3.10;;;27.60;78.60;;;;;;5067457;28;20227;-79
2023/09/16 12:01:31;;;;;;;3.10;2.63;;;27.50;79.30;;;;;;5083589;28;20717;-80
2023/09/16 12:03:59;;;;;;;3.38;2.90;;;27.40;80.70;;;;;;5087899;28;20218;-80
2023/09/16 12:06:26;;;;;;;4.25;2.80;;;27.20;79.90;;;;;;5070490;28;20286;-80
2023/09/16 12:08:57;;;;;;;2.97;2.47;;;27.20;81.30;;;;;;5069141;28;20227;-80
2023/09/16 12:11:24;;;;;;;3.10;2.80;;;27.10;82.30;;;;;;5084803;28;21872;-80
2023/09/16 12:13:53;;;;;;;3.00;2.70;;;27.10;82.50;;;;;;5087081;28;20214;-80
2023/09/16 12:16:20;;;;;;;4.00;2.40;;;27.10;83.70;;;;;;5063187;28;20222;-79
2023/09/16 12:18:47;;;;;;;4.72;2.90;;;27.20;83.50;;;;;;5071354;28;20227;-81
2023/09/16 12:21:14;;;;;;;2.97;2.67;;;27.30;82.90;;;;;;5086341;28;20222;-80
2023/09/16 12:23:42;;;;;;;3.47;2.70;;;27.40;81.80;;;;;;5077504;28;20264;-80
2023/09/16 12:26:11;;;;;;;3.08;2.47;;;27.40;81.60;;;;;;5090852;28;20242;-80
2023/09/16 12:28:38;;;;;;;2.60;2.40;;;27.50;80.00;;;;;;5071015;28;20227;-80
2023/09/16 12:31:08;;;;;;;4.32;2.53;;;27.60;80.90;;;;;;5074159;28;20313;-80
2023/09/16 12:33:40;;;;;;;2.55;2.35;;;27.60;78.20;;;;;;5070903;28;20253;-80
2023/09/16 12:36:07;;;;;;;3.75;2.50;;;27.50;77.60;;;;;;5088925;28;20473;-80
2023/09/16 12:38:35;;;;;;;2.40;2.13;;;27.60;78.10;;;;;;5066089;28;20832;-80
2023/09/16 12:41:02;;;;;;;2.55;2.35;;;27.50;78.90;;;;;;5071818;28;20634;-80
2023/09/16 12:43:31;;;;;;;3.78;2.20;;;27.50;77.30;;;;;;5057406;28;20227;-79
2023/09/16 12:45:58;;;;;;;5.55;2.53;;;27.50;77.20;;;;;;5078289;28;20218;-79
2023/09/16 12:48:26;;;;;;;4.10;2.60;;;27.40;77.90;;;;;;5062765;28;20310;-79
2023/09/16 12:50:54;;;;;;;2.90;2.30;;;27.40;79.30;;;;;;5060474;28;20869;-79
2023/09/16 12:53:20;;;;;;;4.32;2.60;;;27.50;79.70;;;;;;5060331;28;20227;-79